createdAt,value
2023-05-19T00:01:50.170Z,9.73
2023-05-19T00:04:02.444Z,9.73
2023-05-19T00:06:13.044Z,9.73
2023-05-19T00:08:25.840Z,9.73
2023-05-19T00:10:35.765Z,9.73
2023-05-19T00:12:46.597Z,9.74
2023-05-19T00:15:01.270Z,9.7
2023-05-19T00:17:14.485Z,9.7
2023-05-19T00:19:25.423Z,9.67
2023-05-19T00:21:36.761Z,9.67
2023-05-19T00:23:47.080Z,9.67
2023-05-19T00:25:57.785Z,9.69
2023-05-19T00:28:10.367Z,9.7
2023-05-19T00:30:21.626Z,9.71
2023-05-19T00:32:32.319Z,9.73
2023-05-19T00:34:43.790Z,9.69
2023-05-19T00:36:54.382Z,9.7
2023-05-19T00:39:06.191Z,9.73
2023-05-19T00:41:17.027Z,9.71
2023-05-19T00:43:28.068Z,9.72
2023-05-19T00:45:40.805Z,9.73
2023-05-19T00:47:50.501Z,9.73
2023-05-19T00:50:00.588Z,9.74
2023-05-19T00:52:13.804Z,9.76
2023-05-19T00:54:25.702Z,9.76
2023-05-19T00:56:38.826Z,9.76
2023-05-19T00:58:50.724Z,9.77
2023-05-19T01:01:00.946Z,9.75
2023-05-19T01:03:13.906Z,9.76
2023-05-19T01:05:25.786Z,9.77
2023-05-19T01:07:38.167Z,9.79
2023-05-19T01:09:51.772Z,9.81
2023-05-19T01:12:03.548Z,9.82
2023-05-19T01:14:15.287Z,9.81
2023-05-19T01:16:27.371Z,9.81
2023-05-19T01:18:38.786Z,9.8
2023-05-19T01:20:49.766Z,9.82
2023-05-19T01:23:02.621Z,9.84
2023-05-19T01:25:14.048Z,9.85
2023-05-19T01:27:27.726Z,9.85
2023-05-19T01:29:41.425Z,9.82
2023-05-19T01:31:56.570Z,9.82
2023-05-19T01:34:10.447Z,9.82
2023-05-19T01:36:21.805Z,9.8
2023-05-19T01:38:33.126Z,9.81
2023-05-19T01:43:01.268Z,9.83
2023-05-19T01:45:16.950Z,9.83
2023-05-19T01:47:28.944Z,9.79
2023-05-19T01:49:40.290Z,9.79
2023-05-19T01:51:50.199Z,9.8
2023-05-19T01:54:04.741Z,9.79
2023-05-19T01:56:15.798Z,9.75
2023-05-19T01:58:26.909Z,9.73
2023-05-19T02:00:37.611Z,9.75
2023-05-19T02:02:48.432Z,9.76
2023-05-19T02:04:59.270Z,9.77
2023-05-19T02:07:10.288Z,9.74
2023-05-19T02:09:22.489Z,9.77
2023-05-19T02:11:34.708Z,9.78
2023-05-19T02:13:45.693Z,9.74
2023-05-19T02:15:56.263Z,9.72
2023-05-19T02:18:07.869Z,9.71
2023-05-19T02:20:20.328Z,9.76
2023-05-19T02:22:33.568Z,9.78
2023-05-19T02:24:45.387Z,9.75
2023-05-19T02:26:56.486Z,9.77
2023-05-19T02:29:09.545Z,9.71
2023-05-19T02:31:21.978Z,9.73
2023-05-19T02:33:34.511Z,9.72
2023-05-19T02:35:54.565Z,9.76
2023-05-19T02:38:06.309Z,9.77
2023-05-19T02:40:18.927Z,9.74
2023-05-19T02:42:33.622Z,9.71
2023-05-19T02:44:45.152Z,9.76
2023-05-19T02:46:58.438Z,9.75
2023-05-19T02:49:08.964Z,9.74
2023-05-19T02:51:20.648Z,9.75
2023-05-19T02:53:32.183Z,9.75
2023-05-19T02:55:43.589Z,9.74
2023-05-19T02:57:55.223Z,9.74
2023-05-19T03:00:11.290Z,9.77
2023-05-19T03:02:23.046Z,9.77
2023-05-19T03:04:36.214Z,9.78
2023-05-19T03:06:49.524Z,9.85
2023-05-19T03:09:00.725Z,9.88
2023-05-19T03:11:13.609Z,9.93
2023-05-19T03:13:26.766Z,9.83
2023-05-19T03:15:38.870Z,9.84
2023-05-19T03:17:50.719Z,9.91
2023-05-19T03:20:06.436Z,9.96
2023-05-19T03:22:18.614Z,9.88
2023-05-19T03:24:31.925Z,9.88
2023-05-19T03:26:46.568Z,9.89
2023-05-19T03:28:56.331Z,9.88
2023-05-19T03:31:08.991Z,9.88
2023-05-19T03:33:21.194Z,9.89
2023-05-19T03:35:35.693Z,9.9
2023-05-19T03:37:51.312Z,9.89
2023-05-19T03:40:04.568Z,9.97
2023-05-19T03:42:14.538Z,10.03
2023-05-19T03:44:29.691Z,9.99
2023-05-19T03:46:41.772Z,10.06
2023-05-19T03:48:56.100Z,10.08
2023-05-19T03:51:10.055Z,10.15
2023-05-19T03:53:23.656Z,10.1
2023-05-19T03:55:35.478Z,10.12
2023-05-19T03:57:46.889Z,10.06
2023-05-19T03:59:57.535Z,10.13
2023-05-19T04:02:08.753Z,10.15
2023-05-19T04:04:21.183Z,10.26
2023-05-19T04:06:35.272Z,10.28
2023-05-19T04:08:46.836Z,10.32
2023-05-19T04:10:58.754Z,10.33
2023-05-19T04:13:10.810Z,10.35
2023-05-19T04:15:22.014Z,10.3
2023-05-19T04:19:47.689Z,10.23
2023-05-19T04:22:00.667Z,10.16
2023-05-19T04:24:11.873Z,10.18
2023-05-19T04:28:49.342Z,10.2
2023-05-19T04:31:03.033Z,10.21
2023-05-19T04:33:12.781Z,10.25
2023-05-19T04:35:24.027Z,10.35
2023-05-19T04:37:40.728Z,10.32
2023-05-19T04:39:54.615Z,10.36
2023-05-19T04:42:07.992Z,10.34
2023-05-19T04:44:18.840Z,10.43
2023-05-19T04:46:32.888Z,10.56
2023-05-19T04:48:45.029Z,10.5
2023-05-19T04:50:57.309Z,10.6
2023-05-19T04:53:09.875Z,10.59
2023-05-19T04:55:25.453Z,10.65
2023-05-19T04:57:36.997Z,10.63
2023-05-19T04:59:48.993Z,10.52
2023-05-19T05:02:00.292Z,10.57
2023-05-19T05:04:12.897Z,10.66
2023-05-19T05:06:29.336Z,10.77
2023-05-19T05:08:43.585Z,10.77
2023-05-19T05:10:59.149Z,10.63
2023-05-19T05:13:11.883Z,10.71
2023-05-19T05:15:25.317Z,10.81
2023-05-19T05:17:39.666Z,10.82
2023-05-19T05:19:51.623Z,10.84
2023-05-19T05:22:04.846Z,10.7
2023-05-19T05:24:16.884Z,10.73
2023-05-19T05:26:29.532Z,10.74
2023-05-19T05:28:40.262Z,10.91
2023-05-19T05:30:53.019Z,10.95
2023-05-19T05:33:03.882Z,11.02
2023-05-19T05:35:14.900Z,10.94
2023-05-19T05:37:27.108Z,11
2023-05-19T05:39:37.821Z,11.07
2023-05-19T05:41:49.626Z,11.03
2023-05-19T05:44:01.332Z,11.05
2023-05-19T05:46:13.579Z,11.11
2023-05-19T05:48:25.801Z,11.07
2023-05-19T05:50:37.680Z,11.22
2023-05-19T05:52:48.384Z,11.25
2023-05-19T05:57:24.817Z,11.35
2023-05-19T05:59:35.225Z,11.46
2023-05-19T06:01:46.025Z,11.4
2023-05-19T06:04:00.438Z,11.3
2023-05-19T06:06:15.164Z,11.3
2023-05-19T06:08:37.346Z,11.23
2023-05-19T06:10:49.830Z,11
2023-05-19T06:13:03.990Z,10.99
2023-05-19T06:15:16.533Z,11.06
2023-05-19T06:17:27.069Z,11.17
2023-05-19T06:19:38.348Z,11.29
2023-05-19T06:21:58.346Z,11.28
2023-05-19T06:24:14.108Z,11.33
2023-05-19T06:26:26.493Z,11.27
2023-05-19T06:28:37.727Z,11.38
2023-05-19T06:30:47.690Z,11.49
2023-05-19T06:33:01.244Z,11.47
2023-05-19T06:35:19.783Z,11.35
2023-05-19T06:37:32.324Z,11.5
2023-05-19T06:39:47.212Z,11.67
2023-05-19T06:41:58.648Z,11.66
2023-05-19T06:44:14.432Z,11.61
2023-05-19T06:46:32.856Z,11.77
2023-05-19T06:48:43.363Z,11.85
2023-05-19T06:50:54.155Z,11.89
2023-05-19T06:53:06.629Z,11.8
2023-05-19T06:55:20.325Z,11.89
2023-05-19T06:57:32.829Z,11.69
2023-05-19T06:59:46.032Z,11.74
2023-05-19T07:01:59.724Z,11.84
2023-05-19T07:04:12.961Z,11.89
2023-05-19T07:06:24.285Z,11.98
2023-05-19T07:08:35.471Z,11.98
2023-05-19T07:10:46.975Z,11.79
2023-05-19T07:12:59.966Z,11.74
2023-05-19T07:15:12.571Z,11.66
2023-05-19T07:17:24.329Z,11.64
2023-05-19T07:19:38.007Z,11.72
2023-05-19T07:21:49.156Z,11.68
2023-05-19T07:24:00.240Z,11.72
2023-05-19T07:26:15.869Z,11.87
2023-05-19T07:28:34.450Z,11.87
2023-05-19T07:30:54.324Z,12.01
2023-05-19T07:33:10.276Z,11.88
2023-05-19T07:35:22.065Z,11.85
2023-05-19T07:37:35.048Z,12.01
2023-05-19T07:39:48.646Z,11.97
2023-05-19T07:41:58.726Z,11.89
2023-05-19T07:44:10.062Z,12.03
2023-05-19T07:46:21.200Z,12.09
2023-05-19T07:48:33.922Z,12.07
2023-05-19T07:50:45.419Z,12.12
2023-05-19T07:52:57.883Z,12.1
2023-05-19T07:55:11.643Z,12.15
2023-05-19T07:57:21.701Z,12.28
2023-05-19T07:59:31.605Z,12.2
2023-05-19T08:01:42.241Z,12.37
2023-05-19T08:03:52.755Z,12.3
2023-05-19T08:06:05.434Z,12.37
2023-05-19T08:08:17.261Z,12.45
2023-05-19T08:10:29.346Z,12.59
2023-05-19T08:12:42.221Z,12.54
2023-05-19T08:14:57.287Z,12.84
2023-05-19T08:17:10.302Z,12.99
2023-05-19T08:19:22.272Z,12.98
2023-05-19T08:21:34.306Z,13.12
2023-05-19T08:23:44.786Z,13.07
2023-05-19T08:25:55.170Z,12.87
2023-05-19T08:28:05.624Z,12.94
2023-05-19T08:30:17.271Z,12.98
2023-05-19T08:32:29.231Z,12.71
2023-05-19T08:34:39.086Z,12.74
2023-05-19T08:36:52.161Z,12.79
2023-05-19T08:39:05.488Z,12.85
2023-05-19T08:41:15.706Z,12.72
2023-05-19T08:43:25.772Z,12.7
2023-05-19T08:45:35.563Z,12.69
2023-05-19T08:47:45.868Z,12.72
2023-05-19T08:49:57.330Z,12.67
2023-05-19T08:52:09.086Z,12.77
2023-05-19T08:54:21.122Z,12.61
2023-05-19T08:56:32.626Z,12.75
2023-05-19T08:58:42.762Z,12.87
2023-05-19T09:00:53.611Z,12.87
2023-05-19T09:03:17.241Z,12.97
2023-05-19T09:05:32.580Z,12.99
2023-05-19T09:07:47.467Z,12.87
2023-05-19T09:09:58.074Z,12.7
2023-05-19T09:12:11.411Z,12.82
2023-05-19T09:14:23.767Z,12.79
2023-05-19T09:16:34.620Z,12.82
2023-05-19T09:18:45.503Z,12.85
2023-05-19T09:20:56.610Z,12.89
2023-05-19T09:23:06.963Z,13.19
2023-05-19T09:25:18.304Z,13.21
2023-05-19T09:27:28.564Z,13.26
2023-05-19T09:29:38.825Z,13.44
2023-05-19T09:31:49.317Z,13.3
2023-05-19T09:34:01.044Z,13.53
2023-05-19T09:36:12.409Z,13.67
2023-05-19T09:38:24.188Z,13.81
2023-05-19T09:40:35.123Z,13.9
2023-05-19T09:42:48.906Z,13.91
2023-05-19T09:45:00.266Z,13.58
2023-05-19T09:47:11.647Z,13.79
2023-05-19T09:49:24.465Z,13.47
2023-05-19T09:51:35.525Z,13.65
2023-05-19T09:53:45.740Z,13.71
2023-05-19T09:55:56.582Z,13.58
2023-05-19T09:58:09.270Z,13.47
2023-05-19T10:00:21.220Z,13.53
2023-05-19T10:02:33.162Z,13.44
2023-05-19T10:04:43.532Z,13.42
2023-05-19T10:06:54.819Z,13.39
2023-05-19T10:09:07.345Z,13.43
2023-05-19T10:11:17.701Z,13.5
2023-05-19T10:13:29.319Z,13.59
2023-05-19T10:15:56.954Z,13.7
2023-05-19T10:18:10.456Z,13.85
2023-05-19T10:20:24.507Z,13.88
2023-05-19T10:22:37.211Z,13.79
2023-05-19T10:24:56.102Z,13.91
2023-05-19T10:27:11.647Z,14.05
2023-05-19T10:29:22.120Z,14.27
2023-05-19T10:31:35.872Z,14.35
2023-05-19T10:33:46.868Z,14.45
2023-05-19T10:35:57.163Z,14.43
2023-05-19T10:38:07.828Z,14.42
2023-05-19T10:40:20.587Z,14.59
2023-05-19T10:42:33.728Z,14.88
2023-05-19T10:44:45.985Z,14.46
2023-05-19T10:46:58.697Z,14.53
2023-05-19T10:49:10.327Z,14.61
2023-05-19T10:51:24.189Z,14.61
2023-05-19T10:53:44.204Z,14.85
2023-05-19T10:55:56.282Z,14.98
2023-05-19T10:58:07.310Z,15.05
2023-05-19T11:00:24.147Z,14.88
2023-05-19T11:02:38.121Z,14.85
2023-05-19T11:04:56.528Z,14.68
2023-05-19T11:07:06.585Z,14.76
2023-05-19T11:09:19.472Z,14.9
2023-05-19T11:11:49.662Z,14.53
2023-05-19T11:14:01.452Z,14.43
2023-05-19T11:16:14.877Z,14.57
2023-05-19T11:18:27.710Z,14.82
2023-05-19T11:20:39.448Z,15.03
2023-05-19T11:22:52.106Z,15.12
2023-05-19T11:25:04.300Z,14.88
2023-05-19T11:27:14.727Z,14.93
2023-05-19T11:29:32.793Z,15.43
2023-05-19T11:31:46.070Z,15.76
2023-05-19T11:33:57.865Z,15.5
2023-05-19T11:36:09.969Z,15.41
2023-05-19T11:38:21.669Z,15.23
2023-05-19T11:40:34.188Z,15.05
2023-05-19T11:42:44.939Z,15.1
2023-05-19T11:44:55.590Z,15.34
2023-05-19T11:47:05.535Z,15.05
2023-05-19T11:49:16.748Z,14.9
2023-05-19T11:51:27.774Z,15.13
2023-05-19T11:53:41.550Z,15.09
2023-05-19T11:55:52.933Z,15.45
2023-05-19T11:58:09.221Z,15.63
2023-05-19T12:00:21.361Z,15.48
2023-05-19T12:02:33.424Z,15.32
2023-05-19T12:04:45.812Z,15.09
2023-05-19T12:07:00.184Z,15.18
2023-05-19T12:09:16.588Z,15.23
2023-05-19T12:11:37.252Z,15.09
2023-05-19T12:13:50.887Z,15.09
2023-05-19T12:16:05.498Z,15.27
2023-05-19T12:18:17.533Z,15.38
2023-05-19T12:20:28.695Z,15.47
2023-05-19T12:22:43.242Z,15.21
2023-05-19T12:24:55.266Z,14.81
2023-05-19T12:27:15.044Z,14.75
2023-05-19T12:29:27.572Z,14.73
2023-05-19T12:31:39.834Z,14.52
2023-05-19T12:33:53.570Z,14.66
2023-05-19T12:36:05.366Z,14.59
2023-05-19T12:38:19.287Z,14.72
2023-05-19T12:40:31.954Z,14.76
2023-05-19T12:42:44.803Z,14.72
2023-05-19T12:44:55.594Z,14.73
2023-05-19T12:47:11.733Z,14.89
2023-05-19T12:49:23.025Z,14.92
2023-05-19T12:51:33.717Z,14.89
2023-05-19T12:53:43.628Z,14.93
2023-05-19T12:55:54.747Z,14.91
2023-05-19T12:58:04.545Z,14.97
2023-05-19T13:00:15.739Z,14.97
2023-05-19T13:02:25.926Z,15.18
2023-05-19T13:04:39.071Z,15.2
2023-05-19T13:06:52.791Z,15.12
2023-05-19T13:09:07.947Z,15.1
2023-05-19T13:11:22.287Z,15.16
2023-05-19T13:13:32.537Z,15.07
2023-05-19T13:15:46.737Z,15.11
2023-05-19T13:18:02.890Z,15.08
2023-05-19T13:20:14.751Z,15.13
2023-05-19T13:22:31.148Z,15.35
2023-05-19T13:24:45.386Z,15.26
2023-05-19T13:26:59.399Z,15.29
2023-05-19T13:29:11.507Z,15
2023-05-19T13:31:23.687Z,14.83
2023-05-19T13:33:36.427Z,14.8
2023-05-19T13:35:46.843Z,14.65
2023-05-19T13:37:57.700Z,14.69
2023-05-19T13:40:07.706Z,14.71
2023-05-19T13:42:17.065Z,14.6
2023-05-19T13:44:27.824Z,14.77
2023-05-19T13:48:58.987Z,14.62
2023-05-19T13:51:10.488Z,14.65
2023-05-19T13:53:21.565Z,14.78
2023-05-19T13:55:32.804Z,14.87
2023-05-19T13:57:44.309Z,14.98
2023-05-19T14:00:02.368Z,15.1
2023-05-19T14:02:14.828Z,15.15
2023-05-19T14:04:26.075Z,15.29
2023-05-19T14:06:37.018Z,15.15
2023-05-19T14:08:47.600Z,15.14
2023-05-19T14:10:59.727Z,15.13
2023-05-19T14:15:46.150Z,15.09
2023-05-19T14:17:57.484Z,15.08
2023-05-19T14:20:10.262Z,14.94
2023-05-19T14:22:20.924Z,14.72
2023-05-19T14:24:31.944Z,14.77
2023-05-19T14:26:42.104Z,14.81
2023-05-19T14:28:53.285Z,14.87
2023-05-19T14:31:04.846Z,14.6
2023-05-19T14:33:20.783Z,14.53
2023-05-19T14:35:39.661Z,14.64
2023-05-19T14:37:50.304Z,14.53
2023-05-19T14:40:01.463Z,14.47
2023-05-19T14:42:13.240Z,14.57
2023-05-19T14:44:24.939Z,14.57
2023-05-19T14:46:35.562Z,14.6
2023-05-19T14:48:47.680Z,14.65
2023-05-19T14:50:58.121Z,14.68
2023-05-19T14:53:11.721Z,14.73
2023-05-19T14:55:23.922Z,14.8
2023-05-19T14:57:35.682Z,14.85
2023-05-19T14:59:46.521Z,14.89
2023-05-19T15:01:59.364Z,14.95
2023-05-19T15:04:12.192Z,14.98
2023-05-19T15:06:29.767Z,14.85
2023-05-19T15:08:40.849Z,14.76
2023-05-19T15:10:53.885Z,14.78
2023-05-19T15:13:05.945Z,14.85
2023-05-19T15:15:16.125Z,14.87
2023-05-19T15:17:26.400Z,14.95
2023-05-19T15:19:41.663Z,14.86
2023-05-19T15:21:54.305Z,14.74
2023-05-19T15:24:05.423Z,14.65
2023-05-19T15:26:18.586Z,14.54
2023-05-19T15:28:37.860Z,14.5
2023-05-19T15:30:50.916Z,14.62
2023-05-19T15:33:02.060Z,14.79
2023-05-19T15:35:13.678Z,14.71
2023-05-19T15:37:25.170Z,14.58
2023-05-19T15:39:38.685Z,14.6
2023-05-19T15:41:51.655Z,14.7
2023-05-19T15:44:04.362Z,14.65
2023-05-19T15:46:20.731Z,14.71
2023-05-19T15:48:31.482Z,14.81
2023-05-19T15:50:43.028Z,14.71
2023-05-19T15:52:55.484Z,14.63
2023-05-19T15:55:07.635Z,14.63
2023-05-19T15:57:18.506Z,14.54
2023-05-19T15:59:28.286Z,14.52
2023-05-19T16:01:39.369Z,14.5
2023-05-19T16:03:50.253Z,14.42
2023-05-19T16:06:00.904Z,14.41
2023-05-19T16:08:13.131Z,14.45
2023-05-19T16:10:24.430Z,14.51
2023-05-19T16:12:35.507Z,14.51
2023-05-19T16:14:45.569Z,14.52
2023-05-19T16:16:56.267Z,14.55
2023-05-19T16:19:14.545Z,14.59
2023-05-19T16:21:26.353Z,14.62
2023-05-19T16:23:37.930Z,14.5
2023-05-19T16:25:48.250Z,14.57
2023-05-19T16:27:59.653Z,14.59
2023-05-19T16:30:11.900Z,14.62
2023-05-19T16:32:23.844Z,14.58
2023-05-19T16:34:36.885Z,14.6
2023-05-19T16:36:48.014Z,14.54
2023-05-19T16:38:59.568Z,14.46
2023-05-19T16:41:11.191Z,14.46
2023-05-19T16:43:22.668Z,14.48
2023-05-19T16:45:33.867Z,14.46
2023-05-19T16:47:49.117Z,14.45
2023-05-19T16:50:00.360Z,14.47
2023-05-19T16:52:13.829Z,14.42
2023-05-19T16:54:24.688Z,14.41
2023-05-19T16:56:35.707Z,14.41
2023-05-19T16:58:47.086Z,14.35
2023-05-19T17:00:57.284Z,14.28
2023-05-19T17:03:07.192Z,14.22
2023-05-19T17:05:19.566Z,14.19
2023-05-19T17:07:31.196Z,14.19
2023-05-19T17:09:42.191Z,14.17
2023-05-19T17:11:52.705Z,14.17
2023-05-19T17:14:04.512Z,14.13
2023-05-19T17:16:14.694Z,14.12
2023-05-19T17:18:26.013Z,14.11
2023-05-19T17:20:37.988Z,14.1
2023-05-19T17:22:48.328Z,14.06
2023-05-19T17:24:58.417Z,14
2023-05-19T17:29:21.631Z,13.95
2023-05-19T17:31:32.110Z,13.96
2023-05-19T17:33:44.212Z,13.94
2023-05-19T17:35:56.404Z,13.94
2023-05-19T17:38:07.523Z,13.93
2023-05-19T17:40:18.927Z,13.92
2023-05-19T17:42:29.529Z,13.89
2023-05-19T17:44:41.320Z,13.87
2023-05-19T17:46:51.314Z,13.85
2023-05-19T17:49:02.404Z,13.81
2023-05-19T17:51:12.768Z,13.81
2023-05-19T17:53:23.369Z,13.78
2023-05-19T17:55:34.784Z,13.77
2023-05-19T17:57:45.285Z,13.75
2023-05-19T17:59:56.849Z,13.75
2023-05-19T18:02:07.004Z,13.73
2023-05-19T18:04:18.847Z,13.72
2023-05-19T18:06:29.261Z,13.72
2023-05-19T18:08:39.647Z,13.7
2023-05-19T18:10:49.925Z,13.65
2023-05-19T18:13:02.135Z,13.62
2023-05-19T18:15:14.734Z,13.59
2023-05-19T18:17:26.585Z,13.57
2023-05-19T18:19:36.625Z,13.56
2023-05-19T18:21:49.052Z,13.54
2023-05-19T18:24:00.395Z,13.51
2023-05-19T18:26:11.423Z,13.51
2023-05-19T18:28:20.801Z,13.49
2023-05-19T18:30:32.272Z,13.5
2023-05-19T18:32:44.281Z,13.48
2023-05-19T18:34:55.464Z,13.44
2023-05-19T18:37:05.612Z,13.42
2023-05-19T18:39:16.046Z,13.37
2023-05-19T18:41:26.945Z,13.36
2023-05-19T18:43:37.044Z,13.34
2023-05-19T18:45:47.252Z,13.32
2023-05-19T18:47:58.049Z,13.33
2023-05-19T18:50:08.347Z,13.32
2023-05-19T18:52:18.991Z,13.3
2023-05-19T18:54:30.883Z,13.27
2023-05-19T18:56:40.704Z,13.26
2023-05-19T18:58:54.229Z,13.25
2023-05-19T19:01:05.141Z,13.25
2023-05-19T19:03:16.639Z,13.23
2023-05-19T19:05:27.324Z,13.21
2023-05-19T19:07:37.164Z,13.23
2023-05-19T19:09:48.204Z,13.2
2023-05-19T19:12:00.245Z,13.19
2023-05-19T19:14:11.345Z,13.21
2023-05-19T19:16:22.226Z,13.21
2023-05-19T19:18:36.146Z,13.2
2023-05-19T19:20:48.383Z,13.19
2023-05-19T19:23:01.465Z,13.18
2023-05-19T19:25:14.185Z,13.18
2023-05-19T19:27:28.106Z,13.19
2023-05-19T19:29:38.262Z,13.19
2023-05-19T19:31:49.276Z,13.2
2023-05-19T19:33:59.827Z,13.18
2023-05-19T19:36:10.243Z,13.17
2023-05-19T19:38:21.369Z,13.16
2023-05-19T19:40:31.480Z,13.15
2023-05-19T19:42:42.402Z,13.14
2023-05-19T19:44:54.508Z,13.12
2023-05-19T19:47:04.782Z,13.11
2023-05-19T19:49:18.706Z,13.09
2023-05-19T19:51:29.014Z,13.05
2023-05-19T19:53:40.107Z,13.04
2023-05-19T19:55:51.405Z,13.06
2023-05-19T19:58:01.541Z,13.07
2023-05-19T20:00:12.506Z,13.06
2023-05-19T20:02:23.737Z,13.05
2023-05-19T20:04:35.230Z,13.04
2023-05-19T20:06:46.725Z,13.05
2023-05-19T20:09:01.086Z,13.05
2023-05-19T20:11:12.144Z,13.05
2023-05-19T20:13:22.323Z,13.04
2023-05-19T20:15:35.347Z,13.04
2023-05-19T20:17:45.976Z,13.01
2023-05-19T20:19:56.166Z,13.01
2023-05-19T20:22:05.825Z,12.99
2023-05-19T20:24:16.104Z,12.98
2023-05-19T20:26:26.484Z,12.98
2023-05-19T20:28:37.664Z,12.97
2023-05-19T20:30:47.684Z,12.96
2023-05-19T20:32:59.083Z,12.97
2023-05-19T20:35:09.221Z,12.98
2023-05-19T20:37:19.195Z,12.96
2023-05-19T20:39:28.463Z,12.97
2023-05-19T20:41:38.054Z,12.97
2023-05-19T20:43:47.910Z,12.95
2023-05-19T20:45:58.224Z,12.95
2023-05-19T20:48:08.498Z,12.95
2023-05-19T20:50:20.350Z,12.95
2023-05-19T20:52:30.256Z,12.95
2023-05-19T20:54:41.385Z,12.94
2023-05-19T20:56:51.603Z,12.94
2023-05-19T20:59:02.949Z,12.95
2023-05-19T21:01:15.124Z,12.95
2023-05-19T21:03:26.665Z,12.97
2023-05-19T21:05:37.867Z,12.99
2023-05-19T21:07:48.448Z,12.97
2023-05-19T21:10:00.768Z,12.97
2023-05-19T21:12:12.368Z,12.98
2023-05-19T21:14:25.493Z,13
2023-05-19T21:16:35.622Z,12.97
2023-05-19T21:18:45.943Z,12.97
2023-05-19T21:20:56.772Z,12.96
2023-05-19T21:23:07.008Z,12.96
2023-05-19T21:25:18.175Z,12.96
2023-05-19T21:27:27.853Z,12.95
2023-05-19T21:29:38.314Z,12.93
2023-05-19T21:31:48.267Z,12.92
2023-05-19T21:33:59.138Z,12.92
2023-05-19T21:36:10.630Z,12.92
2023-05-19T21:38:23.703Z,12.94
2023-05-19T21:40:36.052Z,12.94
2023-05-19T21:42:46.646Z,12.95
2023-05-19T21:44:57.312Z,12.94
2023-05-19T21:47:08.006Z,12.93
2023-05-19T21:49:18.466Z,12.93
2023-05-19T21:51:29.046Z,12.94
2023-05-19T21:53:39.205Z,12.94
2023-05-19T21:55:50.143Z,12.93
2023-05-19T21:58:02.482Z,12.94
2023-05-19T22:00:13.279Z,12.94
2023-05-19T22:02:24.433Z,12.93
2023-05-19T22:04:34.831Z,12.94
2023-05-19T22:06:45.248Z,12.92
2023-05-19T22:08:55.361Z,12.93
2023-05-19T22:11:05.826Z,12.92
2023-05-19T22:13:17.412Z,12.92
2023-05-19T22:15:29.397Z,12.92
2023-05-19T22:17:40.498Z,12.91
2023-05-19T22:19:51.169Z,12.91
2023-05-19T22:22:10.176Z,12.9
2023-05-19T22:24:25.031Z,12.91
2023-05-19T22:26:35.692Z,12.9
2023-05-19T22:28:46.363Z,12.9
2023-05-19T22:30:56.946Z,12.9
2023-05-19T22:33:07.223Z,12.9
2023-05-19T22:35:18.281Z,12.9
2023-05-19T22:37:28.929Z,12.91
2023-05-19T22:39:38.912Z,12.92
2023-05-19T22:41:49.411Z,12.92
2023-05-19T22:44:00.248Z,12.93
2023-05-19T22:46:10.986Z,12.93
2023-05-19T22:48:21.202Z,12.94
2023-05-19T22:50:31.821Z,12.93
2023-05-19T22:52:42.287Z,12.93
2023-05-19T22:54:53.003Z,12.92
2023-05-19T22:57:03.160Z,12.93
2023-05-19T22:59:14.019Z,12.94
2023-05-19T23:01:23.743Z,12.94
2023-05-19T23:03:34.384Z,12.93
2023-05-19T23:05:45.503Z,12.93
2023-05-19T23:07:56.168Z,12.95
2023-05-19T23:10:06.563Z,12.95
2023-05-19T23:12:17.222Z,12.95
2023-05-19T23:14:28.382Z,12.96
2023-05-19T23:16:39.411Z,12.97
2023-05-19T23:18:50.427Z,12.98
2023-05-19T23:21:01.359Z,12.99
2023-05-19T23:23:13.864Z,12.97
2023-05-19T23:25:24.205Z,12.97
2023-05-19T23:27:34.664Z,12.97
2023-05-19T23:29:45.845Z,12.96
2023-05-19T23:31:57.962Z,12.97
2023-05-19T23:34:08.980Z,12.98
2023-05-19T23:36:19.992Z,12.99
2023-05-19T23:38:30.085Z,12.99
2023-05-19T23:40:40.387Z,12.97
2023-05-19T23:42:50.889Z,12.98
2023-05-19T23:45:03.370Z,12.97
2023-05-19T23:47:14.607Z,12.97
2023-05-19T23:49:24.910Z,12.98
2023-05-19T23:51:35.129Z,12.97
2023-05-19T23:53:46.090Z,12.96
2023-05-19T23:55:57.989Z,12.97
2023-05-19T23:58:09.652Z,12.93
